Flight Track Log - Related Links

Times and Time Zones

All times are in EDT time to prevent confusion due to time zone crossing. See the DAL1283 flight status page for this flight to view local times or setup timezone preferences in your user account.

Time Position Orientation Groundspeed Altitude Reporting Facility
EDT Latitude Longitude Course Direction KTS MPH feet Rate Location/Type
Sat 12:09:56 PM 42.9167 -71.4167 202° Southwest 148 170 1,300  Level KA90
Sat 12:10:22 PM 42.9000 -71.4333 216° Southwest 160 184 1,900 2,267 Climbing KA90
Sat 12:11:26 PM 42.8333 -71.4333 180° South 247 284 4,700 2,540 Climbing KA90
Sat 12:12:00 PM 43.0587 -71.0739 65° Northeast  Level FlightAware Approximate
Sat 12:12:39 PM 42.8514 -71.3328 76° East 276 318 7,700  Level Boston Center
Sat 12:13:00 PM 43.0625 -70.9521 132° Southeast  Level FlightAware Approximate
Sat 12:13:39 PM 42.9342 -71.2603 33° Northeast 283 326 10,400  Level Boston Center
Sat 12:14:00 PM 42.9831 -70.8668 202° Southwest  Level FlightAware Approximate
Sat 12:14:39 PM 43.0183 -71.1622 40° Northeast 364 419 12,300  Level Boston Center
Sat 12:15:00 PM 42.8891 -70.9191 202° Southwest  Level FlightAware Approximate
Sat 12:15:39 PM 43.0689 -71.0247 63° Northeast 424 488 14,500  Level Boston Center
Sat 12:16:39 PM 42.9883 -70.9158 135° Southeast 361 415 16,900 2,450 Climbing Boston Center
Sat 12:17:39 PM 42.8886 -70.9297 186° South 333 383 19,400 2,400 Climbing Boston Center
Sat 12:18:39 PM 42.7808 -70.9806 199° South 360 414 21,700 2,100 Climbing Boston Center
Sat 12:19:39 PM 42.6753 -71.0339 200° South 385 443 23,600 2,000 Climbing Boston Center
Sat 12:20:39 PM 42.5653 -71.0897 200° South 414 476 25,700 1,900 Climbing Boston Center
Sat 12:21:39 PM 42.4811 -71.1844 220° Southwest 407 468 27,400 1,700 Climbing Boston Center
Sat 12:22:39 PM 42.4533 -71.3397 256° West 391 450 29,100 1,950 Climbing Boston Center
Sat 12:23:39 PM 42.4256 -71.4867 256° West 396 456 31,300 1,850 Climbing Boston Center
Sat 12:24:39 PM 42.3953 -71.6108 252° West 397 457 32,800 1,300 Climbing Boston Center
Sat 12:25:39 PM 42.3669 -71.7489 255° West 391 450 33,900 600 Climbing Boston Center
Sat 12:26:39 PM 42.3386 -71.8811 254° West 380 437 34,000 50 Climbing Boston Center
Sat 12:27:39 PM 42.3119 -72.0161 255° West 380 437 34,000  Level Boston Center
Sat 12:28:39 PM 42.2833 -72.1456 253° West 380 437 34,000  Level Boston Center
Sat 12:29:39 PM 42.2544 -72.2775 254° West 375 432 34,000  Level Boston Center
Sat 12:30:39 PM 42.2253 -72.4178 254° West 380 437 34,000  Level Boston Center
Sat 12:31:39 PM 42.1961 -72.5522 254° West 380 437 34,000  Level Boston Center
Sat 12:32:39 PM 42.1667 -72.6894 254° West 380 437 34,000  Level Boston Center
Sat 12:33:39 PM 42.1081 -72.8150 238° Southwest 375 432 34,000  Level Boston Center
Sat 12:34:39 PM 42.0514 -72.9042 229° Southwest 360 414 34,000  Level Boston Center
Sat 12:35:39 PM 41.9739 -73.0208 228° Southwest 366 421 34,000 500 Level Boston Center
Sat 12:36:39 PM 41.9064 -73.1236 229° Southwest 379 436 35,000 900 Climbing Boston Center
Sat 12:37:39 PM 41.8392 -73.2258 229° Southwest 379 436 35,800 500 Climbing Boston Center
Sat 12:38:39 PM 41.7844 -73.3031 226° Southwest 379 436 36,000 100 Climbing Boston Center
Sat 12:39:39 PM 41.7064 -73.4217 229° Southwest 373 429 36,000 -35 Level Boston Center
Sat 12:41:31 PM 41.5858 -73.5975 228° Southwest 343 395 35,900  Descending New York Center
Sat 12:42:29 PM 41.5189 -73.6997 229° Southwest 350 403 36,000 51 Climbing New York Center
Sat 12:43:29 PM 41.4539 -73.7994 229° Southwest 360 414 36,000 -50 Level New York Center
Sat 12:44:30 PM 41.3867 -73.9014 229° Southwest 366 421 35,900  Descending New York Center
Sat 12:45:30 PM 41.3194 -74.0003 228° Southwest 366 421 36,000 50 Climbing New York Center
Sat 12:46:31 PM 41.2503 -74.0964 226° Southwest 366 421 36,000  Level New York Center
Sat 12:47:31 PM 41.1806 -74.2006 228° Southwest 366 421 36,000  Level New York Center
Sat 12:48:28 PM 41.1156 -74.2881 225° Southwest 371 427 36,000  Level New York Center
Sat 12:49:30 PM 41.0436 -74.3914 227° Southwest 376 433 36,000  Level New York Center
Sat 12:50:31 PM 40.9717 -74.4975 228° Southwest 390 449 36,000  Level New York Center
Sat 12:51:29 PM 40.8994 -74.6006 227° Southwest 390 449 36,000  Level New York Center
Sat 12:52:30 PM 40.8272 -74.7092 229° Southwest 395 455 36,000 -49 Level New York Center
Sat 12:53:31 PM 40.7550 -74.8117 227° Southwest 395 455 35,900  Descending New York Center
Sat 12:54:31 PM 40.6786 -74.9139 225° Southwest 395 455 36,000  Climbing New York Center
Sat 12:55:29 PM 40.6058 -75.0217 228° Southwest 395 455 35,900  Descending New York Center
Sat 12:56:30 PM 40.5244 -75.1394 228° Southwest 400 460 36,000 49 Climbing New York Center
Sat 12:57:31 PM 40.4519 -75.2411 227° Southwest 400 460 36,000  Level New York Center
Sat 12:59:29 PM 40.3044 -75.4467 227° Southwest 395 455 36,000  Level New York Center
Sat 01:00:29 PM 40.2333 -75.5506 228° Southwest 395 455 36,000  Level New York Center
Sat 01:01:30 PM 40.1644 -75.6547 229° Southwest 395 455 36,000  Level New York Center
Sat 01:02:31 PM 40.0975 -75.7611 231° Southwest 390 449 36,000  Level New York Center
Sat 01:03:29 PM 40.0283 -75.8700 230° Southwest 390 449 36,000  Level New York Center
Sat 01:04:29 PM 39.9653 -75.9764 232° Southwest 390 449 36,000 -50 Level New York Center
Sat 01:05:30 PM 39.8961 -76.0797 229° Southwest 390 449 35,900  Descending New York Center
Sat 01:07:10 PM 39.7953 -76.2450 232° Southwest 372 428 36,000 38 Climbing Washington Center
Sat 01:08:10 PM 39.7278 -76.3522 231° Southwest 372 428 36,000  Level Washington Center
Sat 01:09:11 PM 39.6583 -76.4567 229° Southwest 377 434 36,000  Level Washington Center
Sat 01:10:11 PM 39.5847 -76.5689 230° Southwest 377 434 36,000  Level Washington Center
Sat 01:11:12 PM 39.5192 -76.6703 230° Southwest 382 440 36,000  Level Washington Center
Sat 01:12:11 PM 39.4536 -76.7714 230° Southwest 382 440 36,000  Level Washington Center
Sat 01:13:12 PM 39.3881 -76.8753 231° Southwest 377 434 36,000  Level Washington Center
Sat 01:14:12 PM 39.3222 -76.9786 231° Southwest 377 434 36,000  Level Washington Center
Sat 01:15:10 PM 39.2564 -77.0792 230° Southwest 377 434 36,000  Level Washington Center
Sat 01:16:10 PM 39.1906 -77.1822 231° Southwest 377 434 36,000  Level Washington Center
Sat 01:17:11 PM 39.1225 -77.2878 230° Southwest 377 434 36,000  Level Washington Center
Sat 01:18:11 PM 39.0542 -77.3906 229° Southwest 377 434 36,000  Level Washington Center
Sat 01:19:12 PM 38.9900 -77.4903 230° Southwest 377 434 36,000  Level Washington Center
Sat 01:20:10 PM 38.9239 -77.5956 231° Southwest 377 434 36,000  Level Washington Center
Sat 01:21:11 PM 38.8639 -77.6844 229° Southwest 377 434 36,000  Level Washington Center
Sat 01:22:12 PM 38.7956 -77.7864 229° Southwest 377 434 36,000  Level Washington Center
Sat 01:23:10 PM 38.7267 -77.8881 229° Southwest 377 434 36,000  Level Washington Center
Sat 01:24:12 PM 38.6622 -77.9872 230° Southwest 372 428 36,000  Level Washington Center
Sat 01:25:10 PM 38.5956 -78.0861 229° Southwest 372 428 36,000  Level Washington Center
Sat 01:26:11 PM 38.5311 -78.1847 230° Southwest 372 428 36,000  Level Washington Center
Sat 01:27:11 PM 38.4664 -78.2806 229° Southwest 372 428 36,000  Level Washington Center
Sat 01:28:10 PM 38.3994 -78.3789 229° Southwest 372 428 36,000  Level Washington Center
Sat 01:29:10 PM 38.3347 -78.4769 230° Southwest 372 428 36,000  Level Washington Center
Sat 01:30:11 PM 38.2739 -78.5725 231° Southwest 372 428 36,000  Level Washington Center
Sat 01:31:11 PM 38.2089 -78.6650 228° Southwest 367 422 36,000  Level Washington Center
Sat 01:32:11 PM 38.1483 -78.7550 229° Southwest 361 415 36,000  Level Washington Center
Sat 01:33:12 PM 38.0853 -78.8472 229° Southwest 350 403 36,000  Level Washington Center
Sat 01:34:10 PM 38.0181 -78.9444 229° Southwest 344 396 36,000  Level Washington Center
Sat 01:35:10 PM 37.9592 -79.0314 229° Southwest 344 396 36,000  Level Washington Center
Sat 01:36:11 PM 37.8961 -79.1206 228° Southwest 344 396 36,000  Level Washington Center
Sat 01:37:12 PM 37.8353 -79.2072 228° Southwest 344 396 36,000  Level Washington Center
Sat 01:38:12 PM 37.7786 -79.2833 227° Southwest 344 396 36,000  Level Washington Center
Sat 01:39:10 PM 37.7089 -79.3797 228° Southwest 339 390 36,000  Level Washington Center
Sat 01:40:10 PM 37.6500 -79.4556 226° Southwest 339 390 36,000  Level Washington Center
Sat 01:41:11 PM 37.5822 -79.5517 228° Southwest 339 390 36,000  Level Washington Center
Sat 01:42:12 PM 37.5233 -79.6297 226° Southwest 339 390 36,000  Level Washington Center
Sat 01:43:12 PM 37.4533 -79.7253 227° Southwest 339 390 36,000  Level Washington Center
Sat 01:44:10 PM 37.3900 -79.8083 226° Southwest 349 402 36,000  Level Washington Center
Sat 01:45:58 PM 37.2628 -79.9736 226° Southwest 350 403 36,000  Level Atlanta Center
Sat 01:46:58 PM 37.2011 -80.0600 228° Southwest 344 396 36,000  Level Atlanta Center
Sat 01:47:58 PM 37.1372 -80.1492 228° Southwest 344 396 36,000  Level Atlanta Center
Sat 01:48:58 PM 37.0794 -80.2328 229° Southwest 344 396 36,000  Level Atlanta Center
Sat 01:49:58 PM 37.0133 -80.3217 227° Southwest 349 402 36,000  Level Atlanta Center
Sat 01:50:58 PM 36.9494 -80.4103 228° Southwest 349 402 36,000  Level Atlanta Center
Sat 01:51:58 PM 36.8831 -80.4964 226° Southwest 349 402 36,000  Level Atlanta Center
Sat 01:52:58 PM 36.8108 -80.5931 227° Southwest 354 407 36,000  Level Atlanta Center
Sat 01:53:58 PM 36.7464 -80.6761 226° Southwest 354 407 36,000  Level Atlanta Center
Sat 01:54:58 PM 36.6819 -80.7642 228° Southwest 349 402 36,000  Level Atlanta Center
Sat 01:55:58 PM 36.6156 -80.8550 228° Southwest 349 402 36,000  Level Atlanta Center
Sat 01:56:58 PM 36.5489 -80.9378 225° Southwest 354 407 36,000  Level Atlanta Center
Sat 01:57:58 PM 36.4822 -81.0256 227° Southwest 347 399 36,000  Level Atlanta Center
Sat 01:58:58 PM 36.4256 -81.1025 228° Southwest 347 399 36,000  Level Atlanta Center
Sat 01:59:58 PM 36.3528 -81.1978 227° Southwest 348 400 36,000  Level Atlanta Center
Sat 02:00:58 PM 36.2942 -81.2747 227° Southwest 348 400 36,000  Level Atlanta Center
Sat 02:01:58 PM 36.2272 -81.3619 226° Southwest 348 400 36,000  Level Atlanta Center
Sat 02:02:58 PM 36.1622 -81.4489 227° Southwest 348 400 36,000  Level Atlanta Center
Sat 02:03:58 PM 36.0953 -81.5358 226° Southwest 348 400 36,000  Level Atlanta Center
Sat 02:04:58 PM 36.0261 -81.6253 226° Southwest 354 407 36,000  Level Atlanta Center
Sat 02:05:58 PM 35.9611 -81.7119 227° Southwest 354 407 36,000  Level Atlanta Center
Sat 02:06:58 PM 35.8939 -81.7983 226° Southwest 354 407 36,000  Level Atlanta Center
Sat 02:07:58 PM 35.8244 -81.8847 225° Southwest 354 407 36,000  Level Atlanta Center
Sat 02:08:58 PM 35.7592 -81.9711 227° Southwest 354 407 36,000 -50 Level Atlanta Center
Sat 02:09:58 PM 35.6917 -82.0544 225° Southwest 354 407 35,900 -500 Descending Atlanta Center
Sat 02:10:58 PM 35.6203 -82.1483 227° Southwest 354 407 35,000 -450 Descending Atlanta Center
Sat 02:11:58 PM 35.5547 -82.2289 225° Southwest 347 399 35,000  Level Atlanta Center
Sat 02:12:58 PM 35.4933 -82.3067 226° Southwest 334 384 35,000  Level Atlanta Center
Sat 02:13:58 PM 35.4317 -82.3844 226° Southwest 323 372 35,000 -550 Level Atlanta Center
Sat 02:14:58 PM 35.3681 -82.4647 226° Southwest 323 372 33,900 -1,000 Descending Atlanta Center
Sat 02:15:58 PM 35.3086 -82.5397 226° Southwest 323 372 33,000 -450 Descending Atlanta Center
Sat 02:16:58 PM 35.2489 -82.6069 223° Southwest 328 377 33,000 -750 Level Atlanta Center
Sat 02:17:58 PM 35.1872 -82.6842 226° Southwest 328 377 31,500 -1,250 Descending Atlanta Center
Sat 02:18:58 PM 35.1128 -82.7617 220° Southwest 318 366 30,500 -1,050 Descending Atlanta Center
Sat 02:19:58 PM 35.0467 -82.8311 221° Southwest 318 366 29,400 -950 Descending Atlanta Center
Sat 02:20:58 PM 34.9806 -82.9031 222° Southwest 318 366 28,600 -800 Descending Atlanta Center
Sat 02:21:58 PM 34.9186 -82.9647 219° Southwest 318 366 27,800 -1,000 Descending Atlanta Center
Sat 02:22:58 PM 34.8544 -83.0389 223° Southwest 318 366 26,600 -1,000 Descending Atlanta Center
Sat 02:23:58 PM 34.7842 -83.1081 219° Southwest 323 372 25,800 -800 Descending Atlanta Center
Sat 02:24:58 PM 34.7306 -83.1894 231° Southwest 323 372 25,000 -900 Descending Atlanta Center
Sat 02:25:58 PM 34.6894 -83.2961 245° Southwest 312 359 24,000 -500 Descending Atlanta Center
Sat 02:26:58 PM 34.6211 -83.3850 227° Southwest 332 382 24,000 -750 Level Atlanta Center
Sat 02:27:58 PM 34.5506 -83.4839 229° Southwest 367 422 22,500 -1,600 Descending Atlanta Center
Sat 02:28:58 PM 34.4925 -83.5878 236° Southwest 387 445 20,800 -1,500 Descending Atlanta Center
Sat 02:29:58 PM 34.4806 -83.6986 263° West 342 394 19,500 -1,300 Descending Atlanta Center
Sat 02:30:58 PM 34.4744 -83.7994 266° West 319 367 18,200 -1,650 Descending Atlanta Center
Sat 02:31:58 PM 34.4578 -83.8900 257° West 289 333 16,200 -1,850 Descending Atlanta Center
Sat 02:32:58 PM 34.3892 -83.9281 205° Southwest 259 298 14,500 -1,150 Descending Atlanta Center
Sat 02:33:58 PM 34.3078 -83.9458 190° South 267 307 13,900 -800 Descending Atlanta Center
Sat 02:34:58 PM 34.2264 -83.9658 191° South 298 343 12,900 -650 Descending Atlanta Center
Sat 02:35:58 PM 34.1575 -83.9861 194° South 297 342 12,600 -1,000 Descending Atlanta Center
Sat 02:36:58 PM 34.0947 -84.0414 216° Southwest 278 320 10,900 -1,409 Descending Atlanta Center
Sat 02:37:53 PM 34.0167 -84.0667 195° South 287 330 9,900 -1,172 Descending Atlanta TRACON
Sat 02:39:47 PM 33.8667 -84.0667 180° South 284 327 7,600 -1,200 Descending Atlanta TRACON
Sat 02:40:58 PM 33.7817 -84.0839 190° South 285 328 6,200 -824 Descending Atlanta Center
Sat 02:41:58 PM 33.7378 -84.0289 134° Southeast 210 242 5,800 -650 Descending Atlanta Center
Sat 02:42:58 PM 33.6772 -84.0189 172° South 216 249 4,900 -274 Descending Atlanta Center
Sat 02:44:00 PM 33.6920 -84.1356 279° West  Level FlightAware Approximate
Sat 02:44:53 PM 33.6500 -84.1333 279° West 210 242 5,000  Level Atlanta TRACON
Sat 02:45:53 PM 33.6500 -84.2000 270° West 212 244 4,300 -700 Descending Atlanta TRACON

Login

Don't have an account? Register now (free) for customized features, flight alerts, and more!